sensor_id;sensor_type;location;lat;lon;timestamp;pressure;altitude;pressure_sealevel;temperature;humidity
42671;BME280;28283;55.426;37.756;2023-12-14T00:01:36;100016.19;;;-11.84;72.32
42671;BME280;28283;55.426;37.756;2023-12-14T00:06:36;99980.06;;;-12.20;73.33
42671;BME280;28283;55.426;37.756;2023-12-14T00:11:38;100030.81;;;-11.80;73.78
42671;BME280;28283;55.426;37.756;2023-12-14T00:16:39;99966.72;;;-12.05;73.10
42671;BME280;28283;55.426;37.756;2023-12-14T00:21:40;100028.78;;;-11.71;73.23
42671;BME280;28283;55.426;37.756;2023-12-14T00:26:40;100029.78;;;-11.75;72.44
42671;BME280;28283;55.426;37.756;2023-12-14T00:31:41;100054.75;;;-11.72;72.46
42671;BME280;28283;55.426;37.756;2023-12-14T00:36:41;100007.03;;;-11.66;73.97
42671;BME280;28283;55.426;37.756;2023-12-14T00:41:43;100016.00;;;-11.77;73.26
42671;BME280;28283;55.426;37.756;2023-12-14T00:46:43;100043.13;;;-11.57;73.33
42671;BME280;28283;55.426;37.756;2023-12-14T00:51:44;100032.13;;;-11.67;73.04
42671;BME280;28283;55.426;37.756;2023-12-14T00:56:45;100021.75;;;-11.67;73.99
42671;BME280;28283;55.426;37.756;2023-12-14T01:01:45;99986.59;;;-11.77;72.34
42671;BME280;28283;55.426;37.756;2023-12-14T01:06:47;100033.44;;;-11.52;73.69
42671;BME280;28283;55.426;37.756;2023-12-14T01:11:47;100007.91;;;-11.66;73.17
42671;BME280;28283;55.426;37.756;2023-12-14T01:16:48;100001.00;;;-11.67;73.61
42671;BME280;28283;55.426;37.756;2023-12-14T01:21:49;99995.25;;;-11.77;72.44
42671;BME280;28283;55.426;37.756;2023-12-14T01:26:49;99982.56;;;-11.86;72.83
42671;BME280;28283;55.426;37.756;2023-12-14T01:31:50;100029.06;;;-11.50;73.22
42671;BME280;28283;55.426;37.756;2023-12-14T01:36:51;99970.53;;;-11.88;73.78
42671;BME280;28283;55.426;37.756;2023-12-14T01:41:51;99922.13;;;-12.16;72.77
42671;BME280;28283;55.426;37.756;2023-12-14T01:46:52;100012.81;;;-11.57;72.68
42671;BME280;28283;55.426;37.756;2023-12-14T01:51:52;100021.63;;;-11.62;72.98
42671;BME280;28283;55.426;37.756;2023-12-14T01:56:53;100031.97;;;-11.61;73.08
42671;BME280;28283;55.426;37.756;2023-12-14T02:01:56;100024.88;;;-11.56;74.56
42671;BME280;28283;55.426;37.756;2023-12-14T02:06:57;100014.34;;;-11.49;72.58
42671;BME280;28283;55.426;37.756;2023-12-14T02:11:57;100019.81;;;-11.59;74.03
42671;BME280;28283;55.426;37.756;2023-12-14T02:16:58;99999.06;;;-11.59;74.27
42671;BME280;28283;55.426;37.756;2023-12-14T02:21:58;100011.22;;;-11.61;73.86
42671;BME280;28283;55.426;37.756;2023-12-14T02:26:59;100013.53;;;-11.52;73.62
42671;BME280;28283;55.426;37.756;2023-12-14T02:32:00;99877.81;;;-12.38;74.37
42671;BME280;28283;55.426;37.756;2023-12-14T02:37:01;100005.38;;;-11.67;75.02
42671;BME280;28283;55.426;37.756;2023-12-14T02:42:01;99982.75;;;-11.92;74.20
42671;BME280;28283;55.426;37.756;2023-12-14T02:47:02;100016.72;;;-11.72;74.08
42671;BME280;28283;55.426;37.756;2023-12-14T02:52:03;100028.97;;;-11.47;74.82
42671;BME280;28283;55.426;37.756;2023-12-14T02:57:04;99949.50;;;-12.07;74.68
42671;BME280;28283;55.426;37.756;2023-12-14T03:02:05;100009.78;;;-11.71;74.05
42671;BME280;28283;55.426;37.756;2023-12-14T03:07:06;100017.66;;;-11.44;73.79
42671;BME280;28283;55.426;37.756;2023-12-14T03:12:07;100037.06;;;-11.58;74.45
42671;BME280;28283;55.426;37.756;2023-12-14T03:17:08;100010.59;;;-11.39;73.72
42671;BME280;28283;55.426;37.756;2023-12-14T03:22:13;100001.13;;;-11.42;74.58
42671;BME280;28283;55.426;37.756;2023-12-14T03:27:13;100022.84;;;-11.44;73.25
42671;BME280;28283;55.426;37.756;2023-12-14T03:32:14;99970.38;;;-11.82;73.93
42671;BME280;28283;55.426;37.756;2023-12-14T03:37:15;99980.53;;;-11.76;73.96
42671;BME280;28283;55.426;37.756;2023-12-14T03:42:16;100023.97;;;-11.53;73.85
42671;BME280;28283;55.426;37.756;2023-12-14T03:47:16;100023.13;;;-11.54;75.23
42671;BME280;28283;55.426;37.756;2023-12-14T03:52:18;99964.59;;;-11.92;74.63
42671;BME280;28283;55.426;37.756;2023-12-14T03:57:18;100026.63;;;-11.56;75.07
42671;BME280;28283;55.426;37.756;2023-12-14T04:02:19;100028.97;;;-11.47;73.90
42671;BME280;28283;55.426;37.756;2023-12-14T04:07:19;99984.28;;;-11.86;74.21
42671;BME280;28283;55.426;37.756;2023-12-14T04:12:20;99979.75;;;-11.78;75.47
42671;BME280;28283;55.426;37.756;2023-12-14T04:17:21;100003.81;;;-11.45;75.01
42671;BME280;28283;55.426;37.756;2023-12-14T04:22:21;99999.53;;;-11.46;74.73
42671;BME280;28283;55.426;37.756;2023-12-14T04:27:22;99987.88;;;-11.61;74.88
42671;BME280;28283;55.426;37.756;2023-12-14T04:32:27;99915.41;;;-11.94;74.86
42671;BME280;28283;55.426;37.756;2023-12-14T04:37:28;100000.75;;;-11.58;74.32
42671;BME280;28283;55.426;37.756;2023-12-14T04:42:29;100007.28;;;-11.44;74.08
42671;BME280;28283;55.426;37.756;2023-12-14T04:47:29;99954.66;;;-11.78;75.29
42671;BME280;28283;55.426;37.756;2023-12-14T04:52:30;100009.16;;;-11.49;74.60
42671;BME280;28283;55.426;37.756;2023-12-14T04:57:31;99953.44;;;-11.66;73.85
42671;BME280;28283;55.426;37.756;2023-12-14T05:02:32;99993.94;;;-11.62;74.15
42671;BME280;28283;55.426;37.756;2023-12-14T05:07:32;100010.53;;;-11.67;74.09
42671;BME280;28283;55.426;37.756;2023-12-14T05:12:33;100021.69;;;-11.64;75.22
42671;BME280;28283;55.426;37.756;2023-12-14T05:17:34;100025.88;;;-11.60;74.74
42671;BME280;28283;55.426;37.756;2023-12-14T05:22:37;100030.75;;;-11.49;73.90
42671;BME280;28283;55.426;37.756;2023-12-14T05:27:37;99971.44;;;-11.89;75.17
42671;BME280;28283;55.426;37.756;2023-12-14T05:32:38;100018.25;;;-11.64;74.80
42671;BME280;28283;55.426;37.756;2023-12-14T05:37:39;100027.28;;;-11.48;74.42
42671;BME280;28283;55.426;37.756;2023-12-14T05:42:40;99972.75;;;-11.76;75.60
42671;BME280;28283;55.426;37.756;2023-12-14T05:47:40;100013.44;;;-11.48;74.84
42671;BME280;28283;55.426;37.756;2023-12-14T05:52:42;100030.47;;;-11.40;74.71
42671;BME280;28283;55.426;37.756;2023-12-14T05:57:42;99959.50;;;-11.95;74.71
42671;BME280;28283;55.426;37.756;2023-12-14T06:02:43;99892.31;;;-12.33;74.98
42671;BME280;28283;55.426;37.756;2023-12-14T06:07:43;100026.16;;;-11.39;73.82
42671;BME280;28283;55.426;37.756;2023-12-14T06:12:44;99994.84;;;-11.63;75.00
42671;BME280;28283;55.426;37.756;2023-12-14T06:17:44;99998.47;;;-11.68;73.63
42671;BME280;28283;55.426;37.756;2023-12-14T06:22:45;100007.44;;;-11.50;74.75
42671;BME280;28283;55.426;37.756;2023-12-14T06:27:45;99987.63;;;-11.83;74.80
42671;BME280;28283;55.426;37.756;2023-12-14T06:32:46;100014.13;;;-11.72;74.73
42671;BME280;28283;55.426;37.756;2023-12-14T06:37:47;100003.69;;;-11.70;75.63
42671;BME280;28283;55.426;37.756;2023-12-14T06:42:47;100036.28;;;-11.31;74.50
42671;BME280;28283;55.426;37.756;2023-12-14T06:47:50;99997.78;;;-11.45;74.62
42671;BME280;28283;55.426;37.756;2023-12-14T06:52:50;100020.63;;;-11.28;75.07
42671;BME280;28283;55.426;37.756;2023-12-14T06:57:51;100029.28;;;-11.28;74.06
42671;BME280;28283;55.426;37.756;2023-12-14T07:02:51;100030.56;;;-11.15;73.87
42671;BME280;28283;55.426;37.756;2023-12-14T07:07:52;100032.75;;;-11.29;74.34
42671;BME280;28283;55.426;37.756;2023-12-14T07:12:53;100041.25;;;-11.24;74.85
42671;BME280;28283;55.426;37.756;2023-12-14T07:17:53;100045.34;;;-11.17;74.55
42671;BME280;28283;55.426;37.756;2023-12-14T07:22:54;100027.34;;;-11.21;74.76
42671;BME280;28283;55.426;37.756;2023-12-14T07:27:54;100052.16;;;-11.13;75.45
42671;BME280;28283;55.426;37.756;2023-12-14T07:32:55;100006.25;;;-11.39;74.15
42671;BME280;28283;55.426;37.756;2023-12-14T07:37:56;100047.41;;;-11.26;74.39
42671;BME280;28283;55.426;37.756;2023-12-14T07:42:56;100048.56;;;-11.08;74.81
42671;BME280;28283;55.426;37.756;2023-12-14T07:47:57;100025.88;;;-11.30;74.65
42671;BME280;28283;55.426;37.756;2023-12-14T07:52:58;100063.56;;;-10.90;73.66
42671;BME280;28283;55.426;37.756;2023-12-14T07:57:59;100069.78;;;-10.94;74.27
42671;BME280;28283;55.426;37.756;2023-12-14T08:03:00;100032.34;;;-11.15;74.86
42671;BME280;28283;55.426;37.756;2023-12-14T08:08:01;100039.19;;;-10.86;73.76
42671;BME280;28283;55.426;37.756;2023-12-14T08:13:01;100046.59;;;-10.73;73.16
42671;BME280;28283;55.426;37.756;2023-12-14T08:18:02;100045.75;;;-10.74;73.49
42671;BME280;28283;55.426;37.756;2023-12-14T08:23:02;100022.16;;;-10.95;73.13
42671;BME280;28283;55.426;37.756;2023-12-14T08:28:03;100052.75;;;-10.76;72.88
42671;BME280;28283;55.426;37.756;2023-12-14T08:33:04;100050.88;;;-10.71;72.72
42671;BME280;28283;55.426;37.756;2023-12-14T08:38:05;100073.28;;;-10.68;72.77
42671;BME280;28283;55.426;37.756;2023-12-14T08:43:05;100056.81;;;-10.67;73.63
42671;BME280;28283;55.426;37.756;2023-12-14T08:48:06;100050.91;;;-10.72;73.63
42671;BME280;28283;55.426;37.756;2023-12-14T08:53:06;100053.22;;;-10.63;73.17
42671;BME280;28283;55.426;37.756;2023-12-14T08:58:08;100048.66;;;-10.57;73.13
42671;BME280;28283;55.426;37.756;2023-12-14T09:03:09;100057.78;;;-10.45;72.98
42671;BME280;28283;55.426;37.756;2023-12-14T09:08:09;100055.53;;;-10.30;72.92
42671;BME280;28283;55.426;37.756;2023-12-14T09:13:10;99987.78;;;-10.74;72.42
42671;BME280;28283;55.426;37.756;2023-12-14T09:18:11;100006.34;;;-10.60;72.28
42671;BME280;28283;55.426;37.756;2023-12-14T09:23:11;100072.44;;;-10.42;72.99
42671;BME280;28283;55.426;37.756;2023-12-14T09:28:12;99990.47;;;-10.78;72.66
42671;BME280;28283;55.426;37.756;2023-12-14T09:33:12;100020.44;;;-10.67;72.80
42671;BME280;28283;55.426;37.756;2023-12-14T09:38:13;100073.91;;;-10.33;72.88
42671;BME280;28283;55.426;37.756;2023-12-14T09:43:16;100017.63;;;-10.61;72.96
42671;BME280;28283;55.426;37.756;2023-12-14T09:48:17;100096.63;;;-10.15;72.16
42671;BME280;28283;55.426;37.756;2023-12-14T09:53:18;100057.63;;;-10.15;72.20
42671;BME280;28283;55.426;37.756;2023-12-14T09:58:19;99958.25;;;-10.72;72.13
42671;BME280;28283;55.426;37.756;2023-12-14T10:03:25;99930.63;;;-11.00;72.36
42671;BME280;28283;55.426;37.756;2023-12-14T10:08:26;100012.63;;;-10.41;72.00
42671;BME280;28283;55.426;37.756;2023-12-14T10:13:37;100028.06;;;-10.36;72.87
42671;BME280;28283;55.426;37.756;2023-12-14T10:18:38;99914.47;;;-11.09;72.51
42671;BME280;28283;55.426;37.756;2023-12-14T10:23:39;100028.44;;;-10.23;72.82
42671;BME280;28283;55.426;37.756;2023-12-14T10:28:39;100004.50;;;-10.31;72.52
42671;BME280;28283;55.426;37.756;2023-12-14T10:33:41;100015.25;;;-10.17;73.01
42671;BME280;28283;55.426;37.756;2023-12-14T10:38:43;100013.53;;;-10.18;72.20
42671;BME280;28283;55.426;37.756;2023-12-14T10:43:47;100009.19;;;-10.18;72.84
42671;BME280;28283;55.426;37.756;2023-12-14T10:48:49;100016.88;;;-10.14;72.70
42671;BME280;28283;55.426;37.756;2023-12-14T10:53:51;99996.66;;;-10.06;72.51
42671;BME280;28283;55.426;37.756;2023-12-14T10:58:56;100000.09;;;-10.06;72.77
42671;BME280;28283;55.426;37.756;2023-12-14T11:03:59;99978.41;;;-10.05;72.37
42671;BME280;28283;55.426;37.756;2023-12-14T11:09:04;99946.59;;;-10.35;72.43
42671;BME280;28283;55.426;37.756;2023-12-14T11:14:11;99955.31;;;-10.38;72.27
42671;BME280;28283;55.426;37.756;2023-12-14T11:24:23;99953.84;;;-10.45;72.18
42671;BME280;28283;55.426;37.756;2023-12-14T11:29:24;99980.38;;;-10.11;72.15
42671;BME280;28283;55.426;37.756;2023-12-14T11:34:25;99918.75;;;-10.57;71.84
42671;BME280;28283;55.426;37.756;2023-12-14T11:39:30;99994.44;;;-10.17;72.69
42671;BME280;28283;55.426;37.756;2023-12-14T11:44:31;100039.41;;;-10.39;72.09
42671;BME280;28283;55.426;37.756;2023-12-14T11:49:31;99971.94;;;-10.42;72.29
42671;BME280;28283;55.426;37.756;2023-12-14T11:54:32;99994.13;;;-10.31;72.37
42671;BME280;28283;55.426;37.756;2023-12-14T11:59:35;100000.31;;;-10.35;72.41
42671;BME280;28283;55.426;37.756;2023-12-14T12:04:36;99983.22;;;-10.43;72.93
42671;BME280;28283;55.426;37.756;2023-12-14T12:09:39;100005.41;;;-10.32;72.86
42671;BME280;28283;55.426;37.756;2023-12-14T12:14:41;100001.69;;;-10.27;72.81
42671;BME280;28283;55.426;37.756;2023-12-14T12:19:42;99957.22;;;-10.68;72.91
42671;BME280;28283;55.426;37.756;2023-12-14T12:24:43;100001.50;;;-10.44;73.03
42671;BME280;28283;55.426;37.756;2023-12-14T12:29:44;99966.47;;;-10.59;72.71
42671;BME280;28283;55.426;37.756;2023-12-14T12:34:44;100000.31;;;-10.35;72.82
42671;BME280;28283;55.426;37.756;2023-12-14T12:39:45;100012.47;;;-10.36;73.01
42671;BME280;28283;55.426;37.756;2023-12-14T12:44:46;99936.78;;;-10.77;73.31
42671;BME280;28283;55.426;37.756;2023-12-14T12:49:46;99975.00;;;-10.56;73.04
42671;BME280;28283;55.426;37.756;2023-12-14T12:54:47;100010.59;;;-10.32;73.02
42671;BME280;28283;55.426;37.756;2023-12-14T12:59:48;99976.53;;;-10.50;72.86
42671;BME280;28283;55.426;37.756;2023-12-14T13:04:49;99999.69;;;-10.42;72.70
42671;BME280;28283;55.426;37.756;2023-12-14T13:09:50;99957.50;;;-10.76;73.80
42671;BME280;28283;55.426;37.756;2023-12-14T13:14:51;99941.03;;;-10.74;73.59
42671;BME280;28283;55.426;37.756;2023-12-14T13:19:52;99989.66;;;-10.53;73.80
42671;BME280;28283;55.426;37.756;2023-12-14T13:24:52;99970.47;;;-10.76;73.94
42671;BME280;28283;55.426;37.756;2023-12-14T13:29:53;99946.41;;;-10.81;74.08
42671;BME280;28283;55.426;37.756;2023-12-14T13:34:54;99981.88;;;-10.53;74.24
42671;BME280;28283;55.426;37.756;2023-12-14T13:39:55;99978.25;;;-10.49;73.81
42671;BME280;28283;55.426;37.756;2023-12-14T13:44:55;99967.91;;;-10.50;73.87
42671;BME280;28283;55.426;37.756;2023-12-14T13:49:56;99932.53;;;-10.80;73.78
42671;BME280;28283;55.426;37.756;2023-12-14T13:54:56;99953.56;;;-10.62;73.87
42671;BME280;28283;55.426;37.756;2023-12-14T13:59:59;99944.59;;;-10.79;74.45
42671;BME280;28283;55.426;37.756;2023-12-14T14:05:00;99979.31;;;-10.54;74.37
42671;BME280;28283;55.426;37.756;2023-12-14T14:10:00;99875.44;;;-11.06;74.22
42671;BME280;28283;55.426;37.756;2023-12-14T14:15:03;99866.13;;;-11.12;74.09
42671;BME280;28283;55.426;37.756;2023-12-14T14:20:04;99921.44;;;-10.85;74.27
42671;BME280;28283;55.426;37.756;2023-12-14T14:25:06;99944.66;;;-10.55;74.15
42671;BME280;28283;55.426;37.756;2023-12-14T14:30:07;99939.38;;;-10.52;74.72
42671;BME280;28283;55.426;37.756;2023-12-14T14:35:08;99916.34;;;-10.63;74.44
42671;BME280;28283;55.426;37.756;2023-12-14T14:40:09;99879.06;;;-10.85;73.97
42671;BME280;28283;55.426;37.756;2023-12-14T14:45:10;99856.63;;;-10.88;74.92
42671;BME280;28283;55.426;37.756;2023-12-14T14:50:11;99916.94;;;-10.54;74.46
42671;BME280;28283;55.426;37.756;2023-12-14T14:55:12;99916.94;;;-10.54;75.01
42671;BME280;28283;55.426;37.756;2023-12-14T15:00:13;99873.25;;;-10.68;75.20
42671;BME280;28283;55.426;37.756;2023-12-14T15:05:15;99833.72;;;-10.77;75.02
42671;BME280;28283;55.426;37.756;2023-12-14T15:10:15;99855.09;;;-10.68;74.60
42671;BME280;28283;55.426;37.756;2023-12-14T15:15:16;99838.72;;;-10.70;74.30
42671;BME280;28283;55.426;37.756;2023-12-14T15:20:19;99838.47;;;-10.64;74.68
42671;BME280;28283;55.426;37.756;2023-12-14T15:25:19;99858.53;;;-10.68;76.08
42671;BME280;28283;55.426;37.756;2023-12-14T15:30:20;99820.88;;;-10.80;74.96
42671;BME280;28283;55.426;37.756;2023-12-14T15:35:21;99784.47;;;-11.03;75.14
42671;BME280;28283;55.426;37.756;2023-12-14T15:40:21;99852.47;;;-10.68;75.74
42671;BME280;28283;55.426;37.756;2023-12-14T15:45:22;99851.41;;;-10.63;75.84
42671;BME280;28283;55.426;37.756;2023-12-14T15:50:23;99782.50;;;-10.97;75.78
42671;BME280;28283;55.426;37.756;2023-12-14T15:55:24;99828.88;;;-10.62;76.24
42671;BME280;28283;55.426;37.756;2023-12-14T16:00:25;99823.41;;;-10.54;76.19
42671;BME280;28283;55.426;37.756;2023-12-14T16:05:25;99760.22;;;-10.79;75.22
42671;BME280;28283;55.426;37.756;2023-12-14T16:10:26;99780.50;;;-10.65;76.51
42671;BME280;28283;55.426;37.756;2023-12-14T16:15:27;99798.63;;;-10.63;75.69
42671;BME280;28283;55.426;37.756;2023-12-14T16:20:29;99758.88;;;-10.65;76.34
42671;BME280;28283;55.426;37.756;2023-12-14T16:25:30;99765.28;;;-10.52;75.66
42671;BME280;28283;55.426;37.756;2023-12-14T16:30:30;99762.34;;;-10.66;75.97
42671;BME280;28283;55.426;37.756;2023-12-14T16:35:31;99751.13;;;-10.67;76.23
42671;BME280;28283;55.426;37.756;2023-12-14T16:40:32;99778.28;;;-10.52;75.95
42671;BME280;28283;55.426;37.756;2023-12-14T16:45:33;99771.22;;;-10.48;76.04
42671;BME280;28283;55.426;37.756;2023-12-14T16:50:33;99758.63;;;-10.59;76.60
42671;BME280;28283;55.426;37.756;2023-12-14T16:55:34;99769.41;;;-10.46;76.46
42671;BME280;28283;55.426;37.756;2023-12-14T17:00:35;99759.19;;;-10.51;76.68
42671;BME280;28283;55.426;37.756;2023-12-14T17:05:35;99751.00;;;-10.40;76.63
42671;BME280;28283;55.426;37.756;2023-12-14T17:10:36;99709.34;;;-10.39;76.59
42671;BME280;28283;55.426;37.756;2023-12-14T17:15:37;99712.16;;;-10.67;76.52
42671;BME280;28283;55.426;37.756;2023-12-14T17:20:37;99719.81;;;-10.40;76.43
42671;BME280;28283;55.426;37.756;2023-12-14T17:25:38;99734.69;;;-10.44;77.66
42671;BME280;28283;55.426;37.756;2023-12-14T17:30:39;99712.44;;;-10.30;76.77
42671;BME280;28283;55.426;37.756;2023-12-14T17:35:39;99697.38;;;-10.43;77.09
42671;BME280;28283;55.426;37.756;2023-12-14T17:40:40;99691.22;;;-10.40;76.92
42671;BME280;28283;55.426;37.756;2023-12-14T17:45:41;99638.66;;;-10.47;77.82
42671;BME280;28283;55.426;37.756;2023-12-14T17:50:42;99624.09;;;-10.51;77.87
42671;BME280;28283;55.426;37.756;2023-12-14T17:55:42;99599.50;;;-10.42;77.87
42671;BME280;28283;55.426;37.756;2023-12-14T18:00:43;99588.22;;;-10.43;78.02
42671;BME280;28283;55.426;37.756;2023-12-14T18:05:44;99523.88;;;-10.79;77.79
42671;BME280;28283;55.426;37.756;2023-12-14T18:10:45;99596.56;;;-10.34;77.60
42671;BME280;28283;55.426;37.756;2023-12-14T18:15:46;99589.41;;;-10.29;77.48
42671;BME280;28283;55.426;37.756;2023-12-14T18:20:47;99585.56;;;-10.21;78.16
42671;BME280;28283;55.426;37.756;2023-12-14T18:25:47;99581.09;;;-10.17;78.06
42671;BME280;28283;55.426;37.756;2023-12-14T18:30:48;99570.94;;;-10.23;78.43
42671;BME280;28283;55.426;37.756;2023-12-14T18:35:49;99557.03;;;-10.22;77.98
42671;BME280;28283;55.426;37.756;2023-12-14T18:40:50;99472.88;;;-10.59;78.15
42671;BME280;28283;55.426;37.756;2023-12-14T18:45:51;99531.84;;;-10.20;79.08
42671;BME280;28283;55.426;37.756;2023-12-14T18:50:51;99549.84;;;-10.15;79.34
42671;BME280;28283;55.426;37.756;2023-12-14T18:55:52;99528.19;;;-10.16;79.32
42671;BME280;28283;55.426;37.756;2023-12-14T19:00:53;99510.28;;;-10.03;79.19
42671;BME280;28283;55.426;37.756;2023-12-14T19:05:53;99519.19;;;-10.09;79.11
42671;BME280;28283;55.426;37.756;2023-12-14T19:10:54;99396.63;;;-10.58;79.57
42671;BME280;28283;55.426;37.756;2023-12-14T19:15:54;99474.16;;;-10.09;80.41
42671;BME280;28283;55.426;37.756;2023-12-14T19:20:55;99462.00;;;-10.09;79.91
42671;BME280;28283;55.426;37.756;2023-12-14T19:25:56;99465.13;;;-10.01;79.71
42671;BME280;28283;55.426;37.756;2023-12-14T19:30:58;99416.63;;;-10.21;80.10
42671;BME280;28283;55.426;37.756;2023-12-14T19:35:59;99449.59;;;-10.02;79.69
42671;BME280;28283;55.426;37.756;2023-12-14T19:41:00;99450.28;;;-9.99;80.42
42671;BME280;28283;55.426;37.756;2023-12-14T19:46:00;99359.25;;;-10.35;80.01
42671;BME280;28283;55.426;37.756;2023-12-14T19:51:01;99280.22;;;-10.69;80.23
42671;BME280;28283;55.426;37.756;2023-12-14T19:56:01;99350.00;;;-10.23;80.50
42671;BME280;28283;55.426;37.756;2023-12-14T20:01:02;99356.69;;;-9.99;80.31
42671;BME280;28283;55.426;37.756;2023-12-14T20:06:04;99411.50;;;-9.65;80.10
42671;BME280;28283;55.426;37.756;2023-12-14T20:11:04;99358.97;;;-9.92;80.10
42671;BME280;28283;55.426;37.756;2023-12-14T20:16:06;99404.72;;;-9.69;81.04
42671;BME280;28283;55.426;37.756;2023-12-14T20:21:08;99316.59;;;-10.12;80.92
42671;BME280;28283;55.426;37.756;2023-12-14T20:26:09;99380.66;;;-9.55;81.07
42671;BME280;28283;55.426;37.756;2023-12-14T20:31:11;99370.97;;;-9.52;81.33
42671;BME280;28283;55.426;37.756;2023-12-14T20:36:13;99337.34;;;-9.74;82.07
42671;BME280;28283;55.426;37.756;2023-12-14T20:41:15;99320.97;;;-9.58;81.92
42671;BME280;28283;55.426;37.756;2023-12-14T20:46:16;99265.56;;;-9.61;82.15
42671;BME280;28283;55.426;37.756;2023-12-14T20:51:16;99308.97;;;-9.44;81.67
42671;BME280;28283;55.426;37.756;2023-12-14T20:56:19;99246.72;;;-9.66;82.21
42671;BME280;28283;55.426;37.756;2023-12-14T21:01:20;99254.88;;;-9.54;82.28
42671;BME280;28283;55.426;37.756;2023-12-14T21:06:20;99174.28;;;-10.08;82.22
42671;BME280;28283;55.426;37.756;2023-12-14T21:11:21;99271.16;;;-9.33;82.22
42671;BME280;28283;55.426;37.756;2023-12-14T21:16:25;99244.91;;;-9.29;82.35
42671;BME280;28283;55.426;37.756;2023-12-14T21:21:26;99228.88;;;-9.38;82.57
42671;BME280;28283;55.426;37.756;2023-12-14T21:26:26;99195.38;;;-9.45;82.79
42671;BME280;28283;55.426;37.756;2023-12-14T21:31:27;99207.44;;;-9.26;82.94
42671;BME280;28283;55.426;37.756;2023-12-14T21:36:28;99160.53;;;-9.42;82.98
42671;BME280;28283;55.426;37.756;2023-12-14T21:41:28;99099.25;;;-9.81;82.88
42671;BME280;28283;55.426;37.756;2023-12-14T21:46:29;99184.19;;;-9.13;83.14
42671;BME280;28283;55.426;37.756;2023-12-14T21:51:29;99187.34;;;-9.07;83.69
42671;BME280;28283;55.426;37.756;2023-12-14T21:56:30;99158.03;;;-8.94;84.00
42671;BME280;28283;55.426;37.756;2023-12-14T22:01:31;99148.78;;;-9.00;83.74
42671;BME280;28283;55.426;37.756;2023-12-14T22:06:32;99115.84;;;-9.01;83.68
42671;BME280;28283;55.426;37.756;2023-12-14T22:11:32;99117.13;;;-8.92;83.79
42671;BME280;28283;55.426;37.756;2023-12-14T22:16:33;99102.75;;;-8.99;84.39
42671;BME280;28283;55.426;37.756;2023-12-14T22:21:34;99058.47;;;-9.15;84.33
42671;BME280;28283;55.426;37.756;2023-12-14T22:26:34;99090.63;;;-8.85;84.35
42671;BME280;28283;55.426;37.756;2023-12-14T22:31:35;99094.19;;;-8.86;84.91
42671;BME280;28283;55.426;37.756;2023-12-14T22:36:35;99073.59;;;-8.90;85.54
42671;BME280;28283;55.426;37.756;2023-12-14T22:41:36;99065.97;;;-8.93;85.29
42671;BME280;28283;55.426;37.756;2023-12-14T22:46:40;99013.38;;;-9.00;85.58
42671;BME280;28283;55.426;37.756;2023-12-14T22:51:40;98977.38;;;-9.24;85.48
42671;BME280;28283;55.426;37.756;2023-12-14T22:56:41;99037.72;;;-8.85;86.09
42671;BME280;28283;55.426;37.756;2023-12-14T23:01:42;99034.50;;;-8.74;86.24
42671;BME280;28283;55.426;37.756;2023-12-14T23:06:42;98926.66;;;-9.32;85.56
42671;BME280;28283;55.426;37.756;2023-12-14T23:11:43;99042.91;;;-8.69;85.62
42671;BME280;28283;55.426;37.756;2023-12-14T23:16:46;99017.78;;;-8.70;87.34
42671;BME280;28283;55.426;37.756;2023-12-14T23:21:47;99008.13;;;-8.68;87.85
42671;BME280;28283;55.426;37.756;2023-12-14T23:26:47;99046.00;;;-8.62;88.12
42671;BME280;28283;55.426;37.756;2023-12-14T23:31:48;99074.59;;;-8.61;87.10
42671;BME280;28283;55.426;37.756;2023-12-14T23:36:49;98966.28;;;-9.11;88.18
42671;BME280;28283;55.426;37.756;2023-12-14T23:41:49;99047.25;;;-8.54;87.46
42671;BME280;28283;55.426;37.756;2023-12-14T23:46:50;99041.94;;;-8.52;88.03
42671;BME280;28283;55.426;37.756;2023-12-14T23:51:51;99027.16;;;-8.52;87.71
42671;BME280;28283;55.426;37.756;2023-12-14T23:56:51;98967.47;;;-8.87;87.10
